sensor_id;sensor_type;location;lat;lon;timestamp;P1;durP1;ratioP1;P2;durP2;ratioP2
36653;SDS011;22650;49.350;20.898;2023-05-23T00:01:26;10.63;;;5.40;;
36653;SDS011;22650;49.350;20.898;2023-05-23T00:04:03;6.85;;;4.45;;
36653;SDS011;22650;49.350;20.898;2023-05-23T00:06:37;9.30;;;4.30;;
36653;SDS011;22650;49.350;20.898;2023-05-23T00:09:11;13.15;;;5.40;;
36653;SDS011;22650;49.350;20.898;2023-05-23T00:11:45;6.72;;;4.30;;
36653;SDS011;22650;49.350;20.898;2023-05-23T00:14:19;7.53;;;5.05;;
36653;SDS011;22650;49.350;20.898;2023-05-23T00:16:52;9.20;;;4.70;;
36653;SDS011;22650;49.350;20.898;2023-05-23T00:19:27;9.20;;;5.95;;
36653;SDS011;22650;49.350;20.898;2023-05-23T00:22:01;6.38;;;4.40;;
36653;SDS011;22650;49.350;20.898;2023-05-23T00:24:34;6.53;;;4.05;;
36653;SDS011;22650;49.350;20.898;2023-05-23T00:27:08;8.50;;;4.57;;
36653;SDS011;22650;49.350;20.898;2023-05-23T00:29:43;7.20;;;4.43;;
36653;SDS011;22650;49.350;20.898;2023-05-23T00:32:17;12.57;;;5.05;;
36653;SDS011;22650;49.350;20.898;2023-05-23T00:34:52;11.02;;;4.90;;
36653;SDS011;22650;49.350;20.898;2023-05-23T00:37:26;6.78;;;4.60;;
36653;SDS011;22650;49.350;20.898;2023-05-23T00:40:00;6.07;;;4.40;;
36653;SDS011;22650;49.350;20.898;2023-05-23T00:42:33;7.05;;;4.82;;
36653;SDS011;22650;49.350;20.898;2023-05-23T00:45:07;8.52;;;5.20;;
36653;SDS011;22650;49.350;20.898;2023-05-23T00:47:43;11.68;;;4.90;;
36653;SDS011;22650;49.350;20.898;2023-05-23T00:50:18;7.97;;;5.18;;
36653;SDS011;22650;49.350;20.898;2023-05-23T00:52:53;9.48;;;4.63;;
36653;SDS011;22650;49.350;20.898;2023-05-23T00:55:27;6.68;;;4.55;;
36653;SDS011;22650;49.350;20.898;2023-05-23T00:58:02;7.95;;;4.63;;
36653;SDS011;22650;49.350;20.898;2023-05-23T01:00:35;8.27;;;4.82;;
36653;SDS011;22650;49.350;20.898;2023-05-23T01:03:10;9.10;;;5.05;;
36653;SDS011;22650;49.350;20.898;2023-05-23T01:05:50;7.35;;;5.32;;
36653;SDS011;22650;49.350;20.898;2023-05-23T01:08:23;7.18;;;4.30;;
36653;SDS011;22650;49.350;20.898;2023-05-23T01:10:57;9.20;;;5.38;;
36653;SDS011;22650;49.350;20.898;2023-05-23T01:13:39;9.00;;;5.60;;
36653;SDS011;22650;49.350;20.898;2023-05-23T01:16:18;9.43;;;4.97;;
36653;SDS011;22650;49.350;20.898;2023-05-23T01:19:01;6.47;;;4.38;;
36653;SDS011;22650;49.350;20.898;2023-05-23T01:21:52;8.80;;;4.68;;
36653;SDS011;22650;49.350;20.898;2023-05-23T01:24:29;7.53;;;4.78;;
36653;SDS011;22650;49.350;20.898;2023-05-23T01:27:10;8.25;;;4.93;;
36653;SDS011;22650;49.350;20.898;2023-05-23T01:29:57;8.55;;;4.53;;
36653;SDS011;22650;49.350;20.898;2023-05-23T01:32:33;9.93;;;4.75;;
36653;SDS011;22650;49.350;20.898;2023-05-23T01:35:08;11.23;;;5.95;;
36653;SDS011;22650;49.350;20.898;2023-05-23T01:37:43;9.43;;;5.35;;
36653;SDS011;22650;49.350;20.898;2023-05-23T01:40:17;12.75;;;5.20;;
36653;SDS011;22650;49.350;20.898;2023-05-23T01:42:51;9.20;;;4.63;;
36653;SDS011;22650;49.350;20.898;2023-05-23T01:45:29;9.80;;;5.00;;
36653;SDS011;22650;49.350;20.898;2023-05-23T01:48:03;6.28;;;5.15;;
36653;SDS011;22650;49.350;20.898;2023-05-23T01:50:37;8.75;;;5.30;;
36653;SDS011;22650;49.350;20.898;2023-05-23T01:53:13;8.05;;;5.85;;
36653;SDS011;22650;49.350;20.898;2023-05-23T01:55:49;9.35;;;5.25;;
36653;SDS011;22650;49.350;20.898;2023-05-23T01:58:25;9.50;;;5.20;;
36653;SDS011;22650;49.350;20.898;2023-05-23T02:01:00;8.70;;;5.15;;
36653;SDS011;22650;49.350;20.898;2023-05-23T02:03:34;9.05;;;5.35;;
36653;SDS011;22650;49.350;20.898;2023-05-23T02:06:08;8.35;;;4.80;;
36653;SDS011;22650;49.350;20.898;2023-05-23T02:08:42;7.78;;;4.72;;
36653;SDS011;22650;49.350;20.898;2023-05-23T02:11:16;7.85;;;5.47;;
36653;SDS011;22650;49.350;20.898;2023-05-23T02:13:50;11.57;;;5.20;;
36653;SDS011;22650;49.350;20.898;2023-05-23T02:16:25;7.93;;;4.72;;
36653;SDS011;22650;49.350;20.898;2023-05-23T02:18:59;8.95;;;4.85;;
36653;SDS011;22650;49.350;20.898;2023-05-23T02:21:32;9.43;;;5.15;;
36653;SDS011;22650;49.350;20.898;2023-05-23T02:24:08;7.72;;;4.97;;
36653;SDS011;22650;49.350;20.898;2023-05-23T02:26:41;9.77;;;4.70;;
36653;SDS011;22650;49.350;20.898;2023-05-23T02:29:15;10.63;;;4.97;;
36653;SDS011;22650;49.350;20.898;2023-05-23T02:31:52;8.98;;;4.72;;
36653;SDS011;22650;49.350;20.898;2023-05-23T02:34:25;9.27;;;5.57;;
36653;SDS011;22650;49.350;20.898;2023-05-23T02:36:59;7.38;;;4.78;;
36653;SDS011;22650;49.350;20.898;2023-05-23T02:39:33;7.35;;;5.20;;
36653;SDS011;22650;49.350;20.898;2023-05-23T02:42:07;8.43;;;5.13;;
36653;SDS011;22650;49.350;20.898;2023-05-23T02:44:41;8.27;;;5.43;;
36653;SDS011;22650;49.350;20.898;2023-05-23T02:47:16;10.40;;;6.05;;
36653;SDS011;22650;49.350;20.898;2023-05-23T02:49:49;8.23;;;5.47;;
36653;SDS011;22650;49.350;20.898;2023-05-23T02:52:23;13.63;;;5.45;;
36653;SDS011;22650;49.350;20.898;2023-05-23T02:54:57;7.35;;;5.07;;
36653;SDS011;22650;49.350;20.898;2023-05-23T02:57:32;15.82;;;5.20;;
36653;SDS011;22650;49.350;20.898;2023-05-23T03:00:06;7.18;;;5.03;;
36653;SDS011;22650;49.350;20.898;2023-05-23T03:02:45;13.45;;;6.57;;
36653;SDS011;22650;49.350;20.898;2023-05-23T03:05:19;8.50;;;5.25;;
36653;SDS011;22650;49.350;20.898;2023-05-23T03:07:52;7.30;;;5.07;;
36653;SDS011;22650;49.350;20.898;2023-05-23T03:10:26;7.55;;;5.45;;
36653;SDS011;22650;49.350;20.898;2023-05-23T03:12:59;9.00;;;4.82;;
36653;SDS011;22650;49.350;20.898;2023-05-23T03:15:33;13.30;;;5.82;;
36653;SDS011;22650;49.350;20.898;2023-05-23T03:18:08;7.15;;;5.18;;
36653;SDS011;22650;49.350;20.898;2023-05-23T03:20:43;14.88;;;6.10;;
36653;SDS011;22650;49.350;20.898;2023-05-23T03:23:17;9.30;;;5.38;;
36653;SDS011;22650;49.350;20.898;2023-05-23T03:25:50;13.43;;;6.00;;
36653;SDS011;22650;49.350;20.898;2023-05-23T03:28:24;15.30;;;6.35;;
36653;SDS011;22650;49.350;20.898;2023-05-23T03:30:58;10.10;;;5.47;;
36653;SDS011;22650;49.350;20.898;2023-05-23T03:33:33;12.20;;;6.32;;
36653;SDS011;22650;49.350;20.898;2023-05-23T03:36:10;10.63;;;6.30;;
36653;SDS011;22650;49.350;20.898;2023-05-23T03:38:44;12.38;;;7.05;;
36653;SDS011;22650;49.350;20.898;2023-05-23T03:41:18;9.20;;;5.85;;
36653;SDS011;22650;49.350;20.898;2023-05-23T03:43:53;11.13;;;6.93;;
36653;SDS011;22650;49.350;20.898;2023-05-23T03:46:27;11.10;;;5.55;;
36653;SDS011;22650;49.350;20.898;2023-05-23T03:49:02;10.63;;;6.05;;
36653;SDS011;22650;49.350;20.898;2023-05-23T03:51:36;11.55;;;6.55;;
36653;SDS011;22650;49.350;20.898;2023-05-23T03:54:09;10.00;;;6.13;;
36653;SDS011;22650;49.350;20.898;2023-05-23T03:56:44;15.30;;;7.15;;
36653;SDS011;22650;49.350;20.898;2023-05-23T03:59:18;10.65;;;6.45;;
36653;SDS011;22650;49.350;20.898;2023-05-23T04:01:52;15.73;;;6.47;;
36653;SDS011;22650;49.350;20.898;2023-05-23T04:04:30;13.32;;;6.10;;
36653;SDS011;22650;49.350;20.898;2023-05-23T04:07:04;12.23;;;6.78;;
36653;SDS011;22650;49.350;20.898;2023-05-23T04:09:40;10.77;;;6.78;;
36653;SDS011;22650;49.350;20.898;2023-05-23T04:12:15;12.00;;;6.53;;
36653;SDS011;22650;49.350;20.898;2023-05-23T04:14:49;8.63;;;5.97;;
36653;SDS011;22650;49.350;20.898;2023-05-23T04:17:23;9.63;;;5.90;;
36653;SDS011;22650;49.350;20.898;2023-05-23T04:19:58;8.85;;;5.97;;
36653;SDS011;22650;49.350;20.898;2023-05-23T04:22:32;8.95;;;6.30;;
36653;SDS011;22650;49.350;20.898;2023-05-23T04:25:07;10.93;;;5.97;;
36653;SDS011;22650;49.350;20.898;2023-05-23T04:27:48;8.90;;;5.80;;
36653;SDS011;22650;49.350;20.898;2023-05-23T04:30:22;11.50;;;6.40;;
36653;SDS011;22650;49.350;20.898;2023-05-23T04:32:55;8.65;;;6.15;;
36653;SDS011;22650;49.350;20.898;2023-05-23T04:35:34;11.15;;;6.88;;
36653;SDS011;22650;49.350;20.898;2023-05-23T04:38:10;10.45;;;7.05;;
36653;SDS011;22650;49.350;20.898;2023-05-23T04:40:44;12.48;;;6.25;;
36653;SDS011;22650;49.350;20.898;2023-05-23T04:43:41;10.13;;;6.22;;
36653;SDS011;22650;49.350;20.898;2023-05-23T04:46:29;10.15;;;5.80;;
36653;SDS011;22650;49.350;20.898;2023-05-23T04:49:16;10.93;;;6.85;;
36653;SDS011;22650;49.350;20.898;2023-05-23T04:51:53;12.25;;;6.75;;
36653;SDS011;22650;49.350;20.898;2023-05-23T04:54:34;8.93;;;6.18;;
36653;SDS011;22650;49.350;20.898;2023-05-23T04:57:09;8.57;;;5.63;;
36653;SDS011;22650;49.350;20.898;2023-05-23T04:59:43;8.57;;;5.03;;
36653;SDS011;22650;49.350;20.898;2023-05-23T05:02:17;9.98;;;6.03;;
36653;SDS011;22650;49.350;20.898;2023-05-23T05:04:51;8.98;;;5.60;;
36653;SDS011;22650;49.350;20.898;2023-05-23T05:07:26;10.93;;;6.40;;
36653;SDS011;22650;49.350;20.898;2023-05-23T05:10:01;9.60;;;5.50;;
36653;SDS011;22650;49.350;20.898;2023-05-23T05:12:36;10.50;;;5.38;;
36653;SDS011;22650;49.350;20.898;2023-05-23T05:15:10;13.25;;;5.25;;
36653;SDS011;22650;49.350;20.898;2023-05-23T05:17:46;7.60;;;4.35;;
36653;SDS011;22650;49.350;20.898;2023-05-23T05:20:22;5.32;;;3.70;;
36653;SDS011;22650;49.350;20.898;2023-05-23T05:22:57;10.25;;;6.20;;
36653;SDS011;22650;49.350;20.898;2023-05-23T05:25:32;9.73;;;5.80;;
36653;SDS011;22650;49.350;20.898;2023-05-23T05:28:07;9.75;;;5.45;;
36653;SDS011;22650;49.350;20.898;2023-05-23T05:30:45;7.60;;;5.35;;
36653;SDS011;22650;49.350;20.898;2023-05-23T05:33:19;8.52;;;5.30;;
36653;SDS011;22650;49.350;20.898;2023-05-23T05:36:00;9.52;;;5.80;;
36653;SDS011;22650;49.350;20.898;2023-05-23T05:38:35;12.35;;;4.13;;
36653;SDS011;22650;49.350;20.898;2023-05-23T05:41:09;10.25;;;4.40;;
36653;SDS011;22650;49.350;20.898;2023-05-23T05:43:48;9.45;;;4.88;;
36653;SDS011;22650;49.350;20.898;2023-05-23T05:46:22;8.82;;;4.68;;
36653;SDS011;22650;49.350;20.898;2023-05-23T05:48:57;12.63;;;5.05;;
36653;SDS011;22650;49.350;20.898;2023-05-23T05:51:30;10.65;;;5.25;;
36653;SDS011;22650;49.350;20.898;2023-05-23T05:54:06;13.23;;;5.28;;
36653;SDS011;22650;49.350;20.898;2023-05-23T05:56:40;12.07;;;4.80;;
36653;SDS011;22650;49.350;20.898;2023-05-23T05:59:14;11.07;;;4.97;;
36653;SDS011;22650;49.350;20.898;2023-05-23T06:01:48;6.03;;;4.00;;
36653;SDS011;22650;49.350;20.898;2023-05-23T06:04:22;9.38;;;4.47;;
36653;SDS011;22650;49.350;20.898;2023-05-23T06:06:55;10.88;;;4.60;;
36653;SDS011;22650;49.350;20.898;2023-05-23T06:09:30;6.78;;;4.90;;
36653;SDS011;22650;49.350;20.898;2023-05-23T06:12:04;14.68;;;4.00;;
36653;SDS011;22650;49.350;20.898;2023-05-23T06:14:38;6.68;;;3.35;;
36653;SDS011;22650;49.350;20.898;2023-05-23T06:17:12;4.65;;;3.05;;
36653;SDS011;22650;49.350;20.898;2023-05-23T06:19:48;14.20;;;4.07;;
36653;SDS011;22650;49.350;20.898;2023-05-23T06:22:21;5.18;;;3.35;;
36653;SDS011;22650;49.350;20.898;2023-05-23T06:24:56;5.80;;;3.38;;
36653;SDS011;22650;49.350;20.898;2023-05-23T06:27:30;8.85;;;3.75;;
36653;SDS011;22650;49.350;20.898;2023-05-23T06:30:04;5.95;;;3.92;;
36653;SDS011;22650;49.350;20.898;2023-05-23T06:32:39;9.73;;;3.63;;
36653;SDS011;22650;49.350;20.898;2023-05-23T06:35:13;6.70;;;3.50;;
36653;SDS011;22650;49.350;20.898;2023-05-23T06:37:47;7.45;;;3.53;;
36653;SDS011;22650;49.350;20.898;2023-05-23T06:40:23;13.38;;;3.70;;
36653;SDS011;22650;49.350;20.898;2023-05-23T06:42:57;4.57;;;3.55;;
36653;SDS011;22650;49.350;20.898;2023-05-23T06:45:54;5.22;;;3.72;;
36653;SDS011;22650;49.350;20.898;2023-05-23T06:48:32;10.07;;;3.28;;
36653;SDS011;22650;49.350;20.898;2023-05-23T06:51:05;4.43;;;3.50;;
36653;SDS011;22650;49.350;20.898;2023-05-23T06:53:39;5.05;;;2.95;;
36653;SDS011;22650;49.350;20.898;2023-05-23T06:56:15;7.38;;;3.85;;
36653;SDS011;22650;49.350;20.898;2023-05-23T06:59:01;4.65;;;3.00;;
36653;SDS011;22650;49.350;20.898;2023-05-23T07:01:35;5.32;;;2.75;;
36653;SDS011;22650;49.350;20.898;2023-05-23T07:04:09;5.20;;;2.25;;
36653;SDS011;22650;49.350;20.898;2023-05-23T07:06:44;4.75;;;2.95;;
36653;SDS011;22650;49.350;20.898;2023-05-23T07:09:18;5.65;;;3.00;;
36653;SDS011;22650;49.350;20.898;2023-05-23T07:11:53;4.50;;;3.20;;
36653;SDS011;22650;49.350;20.898;2023-05-23T07:14:27;6.03;;;3.00;;
36653;SDS011;22650;49.350;20.898;2023-05-23T07:17:01;5.78;;;3.30;;
36653;SDS011;22650;49.350;20.898;2023-05-23T07:19:35;3.25;;;2.58;;
36653;SDS011;22650;49.350;20.898;2023-05-23T07:22:10;5.72;;;2.85;;
36653;SDS011;22650;49.350;20.898;2023-05-23T07:24:45;5.40;;;2.92;;
36653;SDS011;22650;49.350;20.898;2023-05-23T07:27:20;7.45;;;2.92;;
36653;SDS011;22650;49.350;20.898;2023-05-23T07:29:54;3.35;;;2.08;;
36653;SDS011;22650;49.350;20.898;2023-05-23T07:32:28;4.95;;;3.28;;
36653;SDS011;22650;49.350;20.898;2023-05-23T07:35:02;2.50;;;2.10;;
36653;SDS011;22650;49.350;20.898;2023-05-23T07:37:37;7.60;;;2.65;;
36653;SDS011;22650;49.350;20.898;2023-05-23T07:40:11;4.20;;;2.63;;
36653;SDS011;22650;49.350;20.898;2023-05-23T07:42:46;5.32;;;2.70;;
36653;SDS011;22650;49.350;20.898;2023-05-23T07:45:20;5.85;;;2.83;;
36653;SDS011;22650;49.350;20.898;2023-05-23T07:47:53;4.95;;;2.40;;
36653;SDS011;22650;49.350;20.898;2023-05-23T07:50:27;5.38;;;2.50;;
36653;SDS011;22650;49.350;20.898;2023-05-23T07:53:02;5.85;;;2.60;;
36653;SDS011;22650;49.350;20.898;2023-05-23T07:55:38;4.25;;;2.50;;
36653;SDS011;22650;49.350;20.898;2023-05-23T07:58:13;5.13;;;2.25;;
36653;SDS011;22650;49.350;20.898;2023-05-23T08:00:47;3.00;;;2.22;;
36653;SDS011;22650;49.350;20.898;2023-05-23T08:03:47;3.45;;;2.47;;
36653;SDS011;22650;49.350;20.898;2023-05-23T08:06:26;4.45;;;2.60;;
36653;SDS011;22650;49.350;20.898;2023-05-23T08:09:03;3.42;;;2.42;;
36653;SDS011;22650;49.350;20.898;2023-05-23T08:11:41;4.93;;;3.13;;
36653;SDS011;22650;49.350;20.898;2023-05-23T08:14:18;3.03;;;2.08;;
36653;SDS011;22650;49.350;20.898;2023-05-23T08:17:01;9.55;;;2.95;;
36653;SDS011;22650;49.350;20.898;2023-05-23T08:19:35;3.35;;;2.70;;
36653;SDS011;22650;49.350;20.898;2023-05-23T08:22:09;4.53;;;2.72;;
36653;SDS011;22650;49.350;20.898;2023-05-23T08:24:43;7.07;;;2.65;;
36653;SDS011;22650;49.350;20.898;2023-05-23T08:27:17;4.22;;;2.40;;
36653;SDS011;22650;49.350;20.898;2023-05-23T08:29:56;6.95;;;2.47;;
36653;SDS011;22650;49.350;20.898;2023-05-23T08:32:30;6.97;;;3.03;;
36653;SDS011;22650;49.350;20.898;2023-05-23T08:35:05;8.00;;;2.45;;
36653;SDS011;22650;49.350;20.898;2023-05-23T08:37:40;3.72;;;2.05;;
36653;SDS011;22650;49.350;20.898;2023-05-23T08:40:17;6.03;;;2.30;;
36653;SDS011;22650;49.350;20.898;2023-05-23T08:43:06;4.38;;;2.70;;
36653;SDS011;22650;49.350;20.898;2023-05-23T08:45:42;3.00;;;2.33;;
36653;SDS011;22650;49.350;20.898;2023-05-23T08:48:16;3.17;;;2.50;;
36653;SDS011;22650;49.350;20.898;2023-05-23T08:50:54;3.75;;;2.58;;
36653;SDS011;22650;49.350;20.898;2023-05-23T08:53:30;3.30;;;2.35;;
36653;SDS011;22650;49.350;20.898;2023-05-23T08:56:09;5.43;;;2.50;;
36653;SDS011;22650;49.350;20.898;2023-05-23T08:58:47;3.13;;;2.13;;
36653;SDS011;22650;49.350;20.898;2023-05-23T09:01:24;3.92;;;1.95;;
36653;SDS011;22650;49.350;20.898;2023-05-23T09:04:02;3.45;;;2.35;;
36653;SDS011;22650;49.350;20.898;2023-05-23T09:06:44;6.97;;;2.63;;
36653;SDS011;22650;49.350;20.898;2023-05-23T09:09:17;9.80;;;2.78;;
36653;SDS011;22650;49.350;20.898;2023-05-23T09:11:54;5.30;;;2.70;;
36653;SDS011;22650;49.350;20.898;2023-05-23T09:14:31;5.22;;;2.22;;
36653;SDS011;22650;49.350;20.898;2023-05-23T09:17:11;4.50;;;2.42;;
36653;SDS011;22650;49.350;20.898;2023-05-23T09:19:50;3.50;;;2.30;;
36653;SDS011;22650;49.350;20.898;2023-05-23T09:22:34;3.20;;;2.30;;
36653;SDS011;22650;49.350;20.898;2023-05-23T09:25:15;5.78;;;2.22;;
36653;SDS011;22650;49.350;20.898;2023-05-23T09:27:50;6.82;;;2.85;;
36653;SDS011;22650;49.350;20.898;2023-05-23T09:30:25;11.63;;;2.50;;
36653;SDS011;22650;49.350;20.898;2023-05-23T09:33:01;4.25;;;2.25;;
36653;SDS011;22650;49.350;20.898;2023-05-23T09:35:42;3.08;;;2.30;;
36653;SDS011;22650;49.350;20.898;2023-05-23T09:38:17;4.82;;;2.90;;
36653;SDS011;22650;49.350;20.898;2023-05-23T09:40:53;6.18;;;1.92;;
36653;SDS011;22650;49.350;20.898;2023-05-23T09:43:28;3.45;;;1.92;;
36653;SDS011;22650;49.350;20.898;2023-05-23T09:46:06;3.55;;;2.33;;
36653;SDS011;22650;49.350;20.898;2023-05-23T09:48:43;3.92;;;2.25;;
36653;SDS011;22650;49.350;20.898;2023-05-23T09:51:19;11.52;;;2.45;;
36653;SDS011;22650;49.350;20.898;2023-05-23T09:53:54;4.38;;;2.70;;
36653;SDS011;22650;49.350;20.898;2023-05-23T09:56:28;3.75;;;2.50;;
36653;SDS011;22650;49.350;20.898;2023-05-23T09:59:01;3.63;;;2.53;;
36653;SDS011;22650;49.350;20.898;2023-05-23T10:01:39;4.18;;;2.50;;
36653;SDS011;22650;49.350;20.898;2023-05-23T10:04:18;6.15;;;2.60;;
36653;SDS011;22650;49.350;20.898;2023-05-23T10:06:55;4.47;;;2.90;;
36653;SDS011;22650;49.350;20.898;2023-05-23T10:09:34;4.80;;;2.40;;
36653;SDS011;22650;49.350;20.898;2023-05-23T10:12:20;2.92;;;2.15;;
36653;SDS011;22650;49.350;20.898;2023-05-23T10:15:12;7.32;;;2.63;;
36653;SDS011;22650;49.350;20.898;2023-05-23T10:17:52;3.30;;;2.65;;
36653;SDS011;22650;49.350;20.898;2023-05-23T10:20:47;8.18;;;2.65;;
36653;SDS011;22650;49.350;20.898;2023-05-23T10:25:59;6.55;;;2.33;;
36653;SDS011;22650;49.350;20.898;2023-05-23T10:28:33;3.42;;;2.08;;
36653;SDS011;22650;49.350;20.898;2023-05-23T10:31:07;5.20;;;2.58;;
36653;SDS011;22650;49.350;20.898;2023-05-23T10:33:42;4.07;;;2.30;;
36653;SDS011;22650;49.350;20.898;2023-05-23T10:36:26;6.00;;;2.60;;
36653;SDS011;22650;49.350;20.898;2023-05-23T10:39:07;6.93;;;2.67;;
36653;SDS011;22650;49.350;20.898;2023-05-23T10:41:48;6.18;;;3.17;;
36653;SDS011;22650;49.350;20.898;2023-05-23T10:44:28;5.13;;;3.17;;
36653;SDS011;22650;49.350;20.898;2023-05-23T10:47:03;5.53;;;3.10;;
36653;SDS011;22650;49.350;20.898;2023-05-23T10:49:37;3.75;;;2.95;;
36653;SDS011;22650;49.350;20.898;2023-05-23T10:52:15;4.78;;;2.72;;
36653;SDS011;22650;49.350;20.898;2023-05-23T10:54:49;4.22;;;2.65;;
36653;SDS011;22650;49.350;20.898;2023-05-23T10:57:24;6.68;;;3.25;;
36653;SDS011;22650;49.350;20.898;2023-05-23T10:59:59;6.28;;;2.92;;
36653;SDS011;22650;49.350;20.898;2023-05-23T11:02:35;6.18;;;2.75;;
36653;SDS011;22650;49.350;20.898;2023-05-23T11:05:18;6.65;;;3.03;;
36653;SDS011;22650;49.350;20.898;2023-05-23T11:08:08;9.20;;;2.88;;
36653;SDS011;22650;49.350;20.898;2023-05-23T11:10:50;5.78;;;2.75;;
36653;SDS011;22650;49.350;20.898;2023-05-23T11:13:25;7.05;;;3.10;;
36653;SDS011;22650;49.350;20.898;2023-05-23T11:16:33;5.13;;;2.70;;
36653;SDS011;22650;49.350;20.898;2023-05-23T11:19:22;5.03;;;2.95;;
36653;SDS011;22650;49.350;20.898;2023-05-23T11:21:59;6.22;;;2.97;;
36653;SDS011;22650;49.350;20.898;2023-05-23T11:24:48;9.82;;;4.43;;
36653;SDS011;22650;49.350;20.898;2023-05-23T11:27:26;6.47;;;2.85;;
36653;SDS011;22650;49.350;20.898;2023-05-23T11:30:03;7.85;;;3.17;;
36653;SDS011;22650;49.350;20.898;2023-05-23T11:32:39;7.20;;;3.38;;
36653;SDS011;22650;49.350;20.898;2023-05-23T11:35:13;5.20;;;3.05;;
36653;SDS011;22650;49.350;20.898;2023-05-23T11:37:48;9.55;;;3.42;;
36653;SDS011;22650;49.350;20.898;2023-05-23T11:40:28;9.70;;;2.88;;
36653;SDS011;22650;49.350;20.898;2023-05-23T11:43:03;5.05;;;3.30;;
36653;SDS011;22650;49.350;20.898;2023-05-23T11:45:38;4.10;;;2.72;;
36653;SDS011;22650;49.350;20.898;2023-05-23T11:48:13;9.00;;;3.50;;
36653;SDS011;22650;49.350;20.898;2023-05-23T11:50:49;6.25;;;2.95;;
36653;SDS011;22650;49.350;20.898;2023-05-23T11:53:25;7.10;;;2.90;;
36653;SDS011;22650;49.350;20.898;2023-05-23T11:56:01;3.45;;;2.30;;
36653;SDS011;22650;49.350;20.898;2023-05-23T11:58:36;4.65;;;2.88;;
36653;SDS011;22650;49.350;20.898;2023-05-23T12:01:11;5.50;;;2.63;;
36653;SDS011;22650;49.350;20.898;2023-05-23T12:03:45;6.22;;;2.92;;
36653;SDS011;22650;49.350;20.898;2023-05-23T12:06:20;4.95;;;2.47;;
36653;SDS011;22650;49.350;20.898;2023-05-23T12:08:55;5.10;;;2.60;;
36653;SDS011;22650;49.350;20.898;2023-05-23T12:11:33;3.83;;;2.78;;
36653;SDS011;22650;49.350;20.898;2023-05-23T12:14:07;4.30;;;2.10;;
36653;SDS011;22650;49.350;20.898;2023-05-23T12:16:42;7.82;;;2.50;;
36653;SDS011;22650;49.350;20.898;2023-05-23T12:19:18;5.60;;;2.08;;
36653;SDS011;22650;49.350;20.898;2023-05-23T12:21:51;2.85;;;2.10;;
36653;SDS011;22650;49.350;20.898;2023-05-23T12:24:25;2.88;;;2.13;;
36653;SDS011;22650;49.350;20.898;2023-05-23T12:27:01;5.35;;;2.53;;
36653;SDS011;22650;49.350;20.898;2023-05-23T12:29:35;4.38;;;2.35;;
36653;SDS011;22650;49.350;20.898;2023-05-23T12:32:09;2.85;;;2.03;;
36653;SDS011;22650;49.350;20.898;2023-05-23T12:34:43;4.43;;;2.70;;
36653;SDS011;22650;49.350;20.898;2023-05-23T12:37:17;4.85;;;2.97;;
36653;SDS011;22650;49.350;20.898;2023-05-23T12:39:51;5.97;;;2.58;;
36653;SDS011;22650;49.350;20.898;2023-05-23T12:42:26;4.72;;;2.33;;
36653;SDS011;22650;49.350;20.898;2023-05-23T12:45:01;3.60;;;2.45;;
36653;SDS011;22650;49.350;20.898;2023-05-23T12:47:35;4.20;;;2.40;;
36653;SDS011;22650;49.350;20.898;2023-05-23T12:50:09;4.38;;;2.75;;
36653;SDS011;22650;49.350;20.898;2023-05-23T12:52:43;5.28;;;2.33;;
36653;SDS011;22650;49.350;20.898;2023-05-23T12:55:17;3.50;;;2.00;;
36653;SDS011;22650;49.350;20.898;2023-05-23T12:57:52;5.22;;;1.90;;
36653;SDS011;22650;49.350;20.898;2023-05-23T13:00:27;3.97;;;2.38;;
36653;SDS011;22650;49.350;20.898;2023-05-23T13:03:00;4.20;;;1.90;;
36653;SDS011;22650;49.350;20.898;2023-05-23T13:05:34;3.33;;;2.00;;
36653;SDS011;22650;49.350;20.898;2023-05-23T13:08:08;3.38;;;2.22;;
36653;SDS011;22650;49.350;20.898;2023-05-23T13:10:43;2.97;;;2.17;;
36653;SDS011;22650;49.350;20.898;2023-05-23T13:13:18;4.03;;;1.88;;
36653;SDS011;22650;49.350;20.898;2023-05-23T13:15:51;4.47;;;2.42;;
36653;SDS011;22650;49.350;20.898;2023-05-23T13:18:25;4.25;;;2.20;;
36653;SDS011;22650;49.350;20.898;2023-05-23T13:20:59;3.60;;;2.38;;
36653;SDS011;22650;49.350;20.898;2023-05-23T13:23:32;4.13;;;2.65;;
36653;SDS011;22650;49.350;20.898;2023-05-23T13:26:09;3.05;;;2.03;;
36653;SDS011;22650;49.350;20.898;2023-05-23T13:28:44;4.82;;;2.72;;
36653;SDS011;22650;49.350;20.898;2023-05-23T13:31:17;4.70;;;2.45;;
36653;SDS011;22650;49.350;20.898;2023-05-23T13:33:52;3.67;;;2.70;;
36653;SDS011;22650;49.350;20.898;2023-05-23T13:36:25;3.60;;;2.30;;
36653;SDS011;22650;49.350;20.898;2023-05-23T13:39:00;3.67;;;2.20;;
36653;SDS011;22650;49.350;20.898;2023-05-23T13:41:36;8.23;;;2.78;;
36653;SDS011;22650;49.350;20.898;2023-05-23T13:44:11;4.07;;;2.85;;
36653;SDS011;22650;49.350;20.898;2023-05-23T13:46:45;5.53;;;3.00;;
36653;SDS011;22650;49.350;20.898;2023-05-23T13:49:18;6.85;;;2.80;;
36653;SDS011;22650;49.350;20.898;2023-05-23T13:51:52;5.40;;;2.40;;
36653;SDS011;22650;49.350;20.898;2023-05-23T13:54:26;4.90;;;2.70;;
36653;SDS011;22650;49.350;20.898;2023-05-23T13:56:59;5.40;;;2.50;;
36653;SDS011;22650;49.350;20.898;2023-05-23T13:59:34;6.45;;;2.90;;
36653;SDS011;22650;49.350;20.898;2023-05-23T14:02:08;6.28;;;2.50;;
36653;SDS011;22650;49.350;20.898;2023-05-23T14:04:47;4.55;;;2.78;;
36653;SDS011;22650;49.350;20.898;2023-05-23T14:07:22;4.85;;;2.83;;
36653;SDS011;22650;49.350;20.898;2023-05-23T14:09:56;5.53;;;2.60;;
36653;SDS011;22650;49.350;20.898;2023-05-23T14:12:30;3.33;;;2.55;;
36653;SDS011;22650;49.350;20.898;2023-05-23T14:15:07;7.40;;;2.58;;
36653;SDS011;22650;49.350;20.898;2023-05-23T14:17:42;4.15;;;2.10;;
36653;SDS011;22650;49.350;20.898;2023-05-23T14:20:17;4.88;;;2.50;;
36653;SDS011;22650;49.350;20.898;2023-05-23T14:22:52;4.10;;;1.90;;
36653;SDS011;22650;49.350;20.898;2023-05-23T14:25:25;8.80;;;3.17;;
36653;SDS011;22650;49.350;20.898;2023-05-23T14:27:59;8.43;;;2.70;;
36653;SDS011;22650;49.350;20.898;2023-05-23T14:30:34;3.53;;;2.20;;
36653;SDS011;22650;49.350;20.898;2023-05-23T14:33:08;7.13;;;2.78;;
36653;SDS011;22650;49.350;20.898;2023-05-23T14:35:42;12.85;;;2.83;;
36653;SDS011;22650;49.350;20.898;2023-05-23T14:38:15;5.57;;;2.60;;
36653;SDS011;22650;49.350;20.898;2023-05-23T14:40:49;4.35;;;2.53;;
36653;SDS011;22650;49.350;20.898;2023-05-23T14:43:24;6.10;;;2.90;;
36653;SDS011;22650;49.350;20.898;2023-05-23T14:45:59;8.07;;;2.70;;
36653;SDS011;22650;49.350;20.898;2023-05-23T14:48:32;2.85;;;2.10;;
36653;SDS011;22650;49.350;20.898;2023-05-23T14:51:06;4.55;;;2.95;;
36653;SDS011;22650;49.350;20.898;2023-05-23T14:53:42;8.50;;;2.63;;
36653;SDS011;22650;49.350;20.898;2023-05-23T14:56:16;5.93;;;2.75;;
36653;SDS011;22650;49.350;20.898;2023-05-23T14:58:50;3.63;;;2.70;;
36653;SDS011;22650;49.350;20.898;2023-05-23T15:01:25;5.75;;;3.03;;
36653;SDS011;22650;49.350;20.898;2023-05-23T15:03:59;5.20;;;2.90;;
36653;SDS011;22650;49.350;20.898;2023-05-23T15:06:33;4.22;;;3.00;;
36653;SDS011;22650;49.350;20.898;2023-05-23T15:09:06;8.18;;;2.75;;
36653;SDS011;22650;49.350;20.898;2023-05-23T15:11:41;6.05;;;3.05;;
36653;SDS011;22650;49.350;20.898;2023-05-23T15:14:15;3.63;;;2.40;;
36653;SDS011;22650;49.350;20.898;2023-05-23T15:16:50;5.88;;;2.47;;
36653;SDS011;22650;49.350;20.898;2023-05-23T15:19:24;5.55;;;2.35;;
36653;SDS011;22650;49.350;20.898;2023-05-23T15:21:58;5.72;;;2.45;;
36653;SDS011;22650;49.350;20.898;2023-05-23T15:24:32;4.43;;;2.40;;
36653;SDS011;22650;49.350;20.898;2023-05-23T15:27:09;4.38;;;2.33;;